Time;durP1;ratioP1;P1;durP2;ratioP2;P2;SDS_P1;SDS_P2;PMS_P1;PMS_P2;Temp;Humidity;BMP_temperature;BMP_pressure;BME280_temperature;BME280_humidity;BME280_pressure;Samples;Min_cycle;Max_cycle;Signal;HPM_P1;HPM_P2
2023/03/28 00:00:04;;;;;;;8.63;1.33;;;3.50;99.90;;;;;;4977682;28;20234;-71
2023/03/28 00:02:29;;;;;;;6.38;0.88;;;3.50;99.90;;;;;;4990591;28;20041;-71
2023/03/28 00:04:55;;;;;;;5.07;1.07;;;3.50;99.90;;;;;;5006416;28;20038;-70
2023/03/28 00:07:21;;;;;;;2.73;0.70;;;3.50;99.90;;;;;;4979657;28;20188;-70
2023/03/28 00:09:48;;;;;;;6.00;1.10;;;3.50;99.90;;;;;;4962791;28;20274;-71
2023/03/28 00:12:13;;;;;;;5.88;0.82;;;3.40;99.90;;;;;;4998091;28;20060;-71
2023/03/28 00:14:39;;;;;;;6.90;1.47;;;3.40;99.90;;;;;;4982312;28;20233;-71
2023/03/28 00:17:06;;;;;;;6.77;1.40;;;3.40;99.90;;;;;;4996124;28;20105;-71
2023/03/28 00:19:32;;;;;;;5.65;1.05;;;3.40;99.90;;;;;;4972263;28;20050;-71
2023/03/28 00:21:59;;;;;;;6.68;1.58;;;3.40;99.90;;;;;;4981303;28;20038;-71
2023/03/28 00:24:27;;;;;;;4.50;1.08;;;3.40;99.90;;;;;;4977671;28;20152;-71
2023/03/28 00:26:53;;;;;;;6.32;1.23;;;3.40;99.90;;;;;;4980022;28;20207;-71
2023/03/28 00:29:20;;;;;;;5.37;0.97;;;3.40;99.90;;;;;;4981337;28;20081;-71
2023/03/28 00:31:48;;;;;;;8.55;1.48;;;3.30;99.90;;;;;;4995780;28;20477;-71
2023/03/28 00:34:14;;;;;;;6.32;1.38;;;3.40;99.90;;;;;;5002797;28;20045;-71
2023/03/28 00:36:40;;;;;;;5.85;1.15;;;3.30;99.90;;;;;;4974710;28;20045;-71
2023/03/28 00:39:09;;;;;;;10.45;1.23;;;3.30;99.90;;;;;;4991975;28;20073;-71
2023/03/28 00:41:38;;;;;;;5.57;0.93;;;3.30;99.90;;;;;;4998150;28;20064;-71
2023/03/28 00:44:42;;;;;;;10.30;1.23;;;3.30;99.90;;;;;;4995717;28;20042;-71
2023/03/28 00:47:35;;;;;;;9.18;1.58;;;3.20;99.90;;;;;;4980972;28;20045;-71
2023/03/28 00:50:19;;;;;;;6.05;1.60;;;3.20;99.90;;;;;;4978922;28;20053;-70
2023/03/28 00:52:51;;;;;;;9.50;2.28;;;3.20;99.90;;;;;;4981681;28;20069;-71
2023/03/28 00:55:41;;;;;;;8.43;1.90;;;3.20;99.90;;;;;;4990939;28;20151;-71
2023/03/28 00:58:15;;;;;;;7.07;1.45;;;3.20;99.90;;;;;;4992606;28;20038;-71
2023/03/28 01:00:40;;;;;;;4.45;1.13;;;3.20;99.90;;;;;;4993797;28;20124;-71
2023/03/28 01:03:07;;;;;;;4.93;1.27;;;3.20;99.90;;;;;;4976666;28;20224;-70
2023/03/28 01:05:34;;;;;;;10.13;1.63;;;3.20;99.90;;;;;;4994828;28;20407;-70
2023/03/28 01:08:20;;;;;;;4.43;1.00;;;3.20;99.90;;;;;;4980081;28;20057;-70
2023/03/28 01:10:46;;;;;;;8.02;1.25;;;3.20;99.90;;;;;;4977995;28;20477;-71
2023/03/28 01:13:15;;;;;;;10.40;1.80;;;3.20;99.90;;;;;;4981137;28;20098;-71
2023/03/28 01:15:43;;;;;;;6.78;1.63;;;3.10;99.90;;;;;;4973268;28;20046;-70
2023/03/28 01:18:10;;;;;;;4.95;0.90;;;3.10;99.90;;;;;;4980869;28;20045;-70
2023/03/28 01:20:45;;;;;;;6.28;1.20;;;3.10;99.90;;;;;;4998105;28;20042;-71
2023/03/28 01:23:44;;;;;;;9.25;1.25;;;3.00;99.90;;;;;;4981331;28;20042;-71
2023/03/28 01:26:32;;;;;;;17.42;1.92;;;3.00;99.90;;;;;;4976994;28;20699;-71
2023/03/28 01:29:19;;;;;;;7.28;2.00;;;3.00;99.90;;;;;;4976249;28;20034;-71
2023/03/28 01:31:59;;;;;;;3.35;0.80;;;2.90;99.90;;;;;;4999033;28;20249;-71
2023/03/28 01:34:49;;;;;;;17.67;1.83;;;2.90;99.90;;;;;;5040507;23;20021;-85
2023/03/28 01:37:54;;;;;;;;;;;2.90;99.90;;;;;;4947988;28;20059;-84
2023/03/28 01:40:38;;;;;;;2.92;0.90;;;2.80;99.90;;;;;;4950187;28;19922;-84
2023/03/28 01:43:42;;;;;;;5.00;1.02;;;2.80;99.90;;;;;;4949651;28;20038;-85
2023/03/28 01:46:18;;;;;;;5.35;1.08;;;2.70;99.90;;;;;;4967510;28;20585;-85
2023/03/28 01:49:19;;;;;;;6.03;1.30;;;2.70;99.90;;;;;;4958375;28;20046;-86
2023/03/28 01:52:18;;;;;;;4.75;1.02;;;2.70;99.90;;;;;;4972251;28;20069;-86
2023/03/28 01:55:21;;;;;;;7.82;1.45;;;2.60;99.90;;;;;;4970833;28;20409;-84
2023/03/28 01:58:21;;;;;;;4.20;1.30;;;2.70;99.90;;;;;;4972782;28;20050;-86
2023/03/28 02:01:35;;;;;;;3.47;0.80;;;2.60;99.90;;;;;;4971705;28;20097;-85
2023/03/28 02:04:12;;;;;;;7.40;1.30;;;2.60;99.90;;;;;;4934020;28;20054;-86
2023/03/28 02:06:46;;;;;;;3.33;1.27;;;2.60;99.90;;;;;;4987414;28;20130;-86
2023/03/28 02:09:13;;;;;;;12.70;1.45;;;2.60;99.90;;;;;;4989375;28;20477;-86
2023/03/28 02:11:41;;;;;;;8.93;2.13;;;2.60;99.90;;;;;;4956555;28;20490;-86
2023/03/28 02:14:17;;;;;;;3.67;1.13;;;2.50;99.90;;;;;;4970375;28;20608;-85
2023/03/28 02:16:59;;;;;;;4.72;1.20;;;2.50;99.90;;;;;;4972773;28;20120;-85
2023/03/28 02:19:40;;;;;;;6.38;1.92;;;2.50;99.90;;;;;;4955210;28;21374;-84
2023/03/28 02:22:17;;;;;;;11.02;1.60;;;2.50;99.90;;;;;;4968460;28;20414;-85
2023/03/28 02:25:12;;;;;;;5.95;1.38;;;2.50;99.90;;;;;;4989607;28;20088;-85
2023/03/28 02:27:51;;;;;;;7.72;1.67;;;2.50;99.90;;;;;;4964470;28;20046;-84
2023/03/28 02:30:27;;;;;;;4.82;1.27;;;2.50;99.90;;;;;;4950722;28;20129;-85
2023/03/28 02:33:12;;;;;;;4.05;1.42;;;2.40;99.90;;;;;;4957376;28;20056;-85
2023/03/28 02:36:11;;;;;;;4.90;1.15;;;2.40;99.90;;;;;;4944283;28;20082;-85
2023/03/28 02:39:14;;;;;;;4.22;1.02;;;2.40;99.90;;;;;;4970168;28;20181;-86
2023/03/28 02:42:17;;;;;;;6.72;0.93;;;2.40;99.90;;;;;;4947325;28;20042;-86
2023/03/28 02:45:15;;;;;;;5.88;0.93;;;2.30;99.90;;;;;;4987699;28;20175;-85
2023/03/28 02:48:12;;;;;;;6.03;1.17;;;2.30;99.90;;;;;;4967397;28;20042;-85
2023/03/28 02:50:56;;;;;;;7.82;1.27;;;2.30;99.90;;;;;;4970970;28;20296;-85
2023/03/28 02:53:43;;;;;;;6.07;1.20;;;2.40;99.90;;;;;;4956448;28;20046;-85
2023/03/28 02:57:03;;;;;;;13.23;1.67;;;2.40;99.90;;;;;;4967769;28;20489;-84
2023/03/28 02:59:52;;;;;;;4.43;0.98;;;2.30;99.90;;;;;;4969392;28;20042;-85
2023/03/28 03:02:21;;;;;;;8.00;1.73;;;2.40;99.90;;;;;;4970097;28;20086;-85
2023/03/28 03:04:50;;;;;;;10.18;1.10;;;2.30;99.90;;;;;;4969657;28;20335;-85
2023/03/28 03:07:24;;;;;;;6.75;0.82;;;2.30;99.90;;;;;;4986528;28;20518;-85
2023/03/28 03:09:52;;;;;;;12.27;1.15;;;2.30;99.90;;;;;;4971610;28;20441;-85
2023/03/28 03:12:24;;;;;;;7.07;1.10;;;2.30;99.90;;;;;;4959552;28;20455;-85
2023/03/28 03:14:59;;;;;;;3.10;0.68;;;2.20;99.90;;;;;;4953510;28;20049;-85
2023/03/28 03:17:35;;;;;;;5.10;0.90;;;2.20;99.90;;;;;;4971822;28;20081;-84
2023/03/28 03:20:06;;;;;;;5.68;1.58;;;2.10;99.90;;;;;;4969251;28;20131;-85
2023/03/28 03:22:35;;;;;;;4.90;1.45;;;2.10;99.90;;;;;;4954610;28;20046;-86
2023/03/28 03:25:11;;;;;;;4.85;1.55;;;2.10;99.90;;;;;;4951440;28;20042;-85
2023/03/28 03:27:40;;;;;;;6.95;0.88;;;2.10;99.90;;;;;;4965325;28;20513;-85
2023/03/28 03:30:09;;;;;;;2.97;0.95;;;2.10;99.90;;;;;;4952047;28;20038;-85
2023/03/28 03:32:47;;;;;;;7.10;1.85;;;2.10;99.90;;;;;;4966463;28;20076;-86
2023/03/28 03:35:16;;;;;;;3.85;0.82;;;2.10;99.90;;;;;;4776642;28;5665536;-85
2023/03/28 03:37:45;;;;;;;5.00;1.08;;;2.00;99.90;;;;;;4953754;28;20813;-86
2023/03/28 03:40:16;;;;;;;5.40;1.15;;;2.00;99.90;;;;;;4953889;28;20045;-85
2023/03/28 03:42:41;;;;;;;8.25;1.15;;;2.00;99.90;;;;;;4969170;28;20055;-85
2023/03/28 03:45:14;;;;;;;5.43;1.07;;;2.00;99.90;;;;;;4953242;28;20034;-85
2023/03/28 03:47:50;;;;;;;6.00;0.77;;;2.00;99.90;;;;;;4966872;28;20039;-85
2023/03/28 03:50:20;;;;;;;6.70;1.05;;;1.90;99.90;;;;;;4969881;28;20412;-85
2023/03/28 03:52:59;;;;;;;6.32;0.73;;;1.90;99.90;;;;;;4974230;28;20537;-85
2023/03/28 03:55:28;;;;;;;7.57;1.35;;;1.90;99.90;;;;;;4952510;28;20402;-85
2023/03/28 03:58:01;;;;;;;4.85;1.00;;;1.90;99.90;;;;;;4953114;28;20042;-85
2023/03/28 04:00:45;;;;;;;3.05;1.00;;;1.90;99.90;;;;;;4969564;28;20053;-85
2023/03/28 04:03:25;;;;;;;9.07;1.25;;;1.90;99.90;;;;;;4969511;28;20042;-87
2023/03/28 04:06:05;;;;;;;9.20;1.17;;;1.80;99.90;;;;;;4954359;28;20046;-86
2023/03/28 04:08:37;;;;;;;11.77;1.88;;;1.80;99.90;;;;;;4966271;28;20559;-85
2023/03/28 04:11:03;;;;;;;6.78;1.52;;;1.70;99.90;;;;;;4969815;28;20552;-85
2023/03/28 04:13:36;;;;;;;4.93;0.90;;;1.70;99.90;;;;;;4951585;28;20130;-85
2023/03/28 04:16:08;;;;;;;4.22;1.02;;;1.70;99.90;;;;;;4966344;28;20323;-86
2023/03/28 04:18:34;;;;;;;2.90;1.27;;;1.80;99.90;;;;;;4966550;28;20046;-84
2023/03/28 04:21:11;;;;;;;2.97;1.13;;;1.80;99.90;;;;;;4971017;28;20042;-84
2023/03/28 04:23:42;;;;;;;4.38;1.10;;;1.80;99.90;;;;;;4967670;28;20108;-84
2023/03/28 04:26:24;;;;;;;;;;;;;;;;;;;;;
2023/03/28 04:28:59;;;;;;;3.17;0.65;;;1.80;99.90;;;;;;4969779;28;20104;-85
2023/03/28 04:31:34;;;;;;;10.55;1.17;;;1.80;99.90;;;;;;4972013;28;20049;-85
2023/03/28 04:34:09;;;;;;;5.43;1.15;;;1.80;99.90;;;;;;4953400;28;20675;-86
2023/03/28 04:36:42;;;;;;;3.15;1.17;;;1.80;99.90;;;;;;4970035;28;20062;-85
2023/03/28 04:39:10;;;;;;;5.65;1.17;;;1.80;99.90;;;;;;4951801;28;20445;-86
2023/03/28 04:42:02;;;;;;;11.75;1.35;;;1.90;99.90;;;;;;4967149;28;20049;-86
2023/03/28 04:44:39;;;;;;;6.45;1.73;;;1.90;99.90;;;;;;4948663;28;20046;-85
2023/03/28 04:47:41;;;;;;;2.63;1.10;;;2.00;99.90;;;;;;4955753;28;20034;-85
2023/03/28 04:50:11;;;;;;;6.15;1.30;;;2.00;99.90;;;;;;4971408;28;20091;-85
2023/03/28 04:52:42;;;;;;;11.07;2.30;;;2.10;99.90;;;;;;4953952;28;20058;-86
2023/03/28 04:55:17;;;;;;;6.53;1.17;;;2.10;99.90;;;;;;4956228;28;20565;-85
2023/03/28 04:57:46;;;;;;;7.10;1.30;;;2.20;99.90;;;;;;4982157;28;20053;-85
2023/03/28 05:00:17;;;;;;;10.73;1.60;;;2.20;99.90;;;;;;4967628;28;20038;-85
2023/03/28 05:02:43;;;;;;;5.40;1.33;;;2.30;99.90;;;;;;4956180;28;20065;-84
2023/03/28 05:05:17;;;;;;;8.87;1.00;;;2.30;99.90;;;;;;4983022;28;20038;-86
2023/03/28 05:07:43;;;;;;;2.60;0.90;;;2.40;99.90;;;;;;4953101;28;20042;-85
2023/03/28 05:10:12;;;;;;;7.37;1.63;;;2.40;99.90;;;;;;4984940;28;20044;-86
2023/03/28 05:12:37;;;;;;;11.13;1.77;;;2.40;99.90;;;;;;4954999;28;20054;-85
2023/03/28 05:15:07;;;;;;;13.63;1.60;;;2.50;99.90;;;;;;4966904;28;20367;-86
2023/03/28 05:17:39;;;;;;;6.72;1.10;;;2.40;99.90;;;;;;4969265;28;20080;-86
2023/03/28 05:20:11;;;;;;;4.07;1.10;;;2.40;99.90;;;;;;4954005;28;20038;-85
2023/03/28 05:22:44;;;;;;;6.28;1.20;;;2.40;99.90;;;;;;4974820;28;20049;-85
2023/03/28 05:25:10;;;;;;;9.15;1.15;;;2.50;99.90;;;;;;4956334;28;20045;-85
2023/03/28 05:27:37;;;;;;;8.60;1.35;;;2.40;99.90;;;;;;4956782;28;20046;-86
2023/03/28 05:30:10;;;;;;;3.60;0.77;;;2.40;99.90;;;;;;4959010;28;20046;-86
2023/03/28 05:32:48;;;;;;;10.20;1.88;;;2.40;99.90;;;;;;4970542;28;20088;-86
2023/03/28 05:35:22;;;;;;;4.32;1.20;;;2.40;99.90;;;;;;4972378;28;20084;-86
2023/03/28 05:37:54;;;;;;;8.63;3.10;;;2.40;99.90;;;;;;4975098;28;20038;-84
2023/03/28 05:40:20;;;;;;;7.00;1.90;;;2.40;99.90;;;;;;4963902;28;20046;-86
2023/03/28 05:42:51;;;;;;;4.63;2.10;;;2.40;99.90;;;;;;4961994;28;20042;-86
2023/03/28 05:45:19;;;;;;;7.10;1.98;;;2.40;99.90;;;;;;4995757;28;20042;-86
2023/03/28 05:47:47;;;;;;;7.50;1.55;;;2.40;99.90;;;;;;4988394;28;20034;-86
2023/03/28 05:50:13;;;;;;;16.90;6.65;;;2.40;99.90;;;;;;4985821;28;20042;-86
2023/03/28 05:52:41;;;;;;;3.97;1.70;;;2.40;99.90;;;;;;4975994;28;20553;-85
2023/03/28 05:55:07;;;;;;;10.98;1.77;;;2.30;99.90;;;;;;4972194;28;20053;-86
2023/03/28 05:57:33;;;;;;;7.15;1.35;;;2.30;99.90;;;;;;4989359;28;20042;-85
2023/03/28 06:00:22;;;;;;;5.25;1.30;;;2.30;99.90;;;;;;4959436;28;20120;-86
2023/03/28 06:06:00;;;;;;;8.87;1.00;;;2.40;99.90;;;;;;4967818;28;20042;-87
2023/03/28 06:08:40;;;;;;;4.78;1.10;;;2.50;99.90;;;;;;4967731;28;20082;-83
2023/03/28 06:11:30;;;;;;;7.00;1.13;;;2.40;99.90;;;;;;4957664;28;20471;-86
2023/03/28 06:13:58;;;;;;;8.48;1.23;;;2.60;99.90;;;;;;4967364;28;20505;-86
2023/03/28 06:16:36;;;;;;;22.17;6.40;;;2.50;99.90;;;;;;4969208;28;20030;-85
2023/03/28 06:19:20;;;;;;;18.73;2.88;;;2.60;99.90;;;;;;4953457;28;20105;-85
2023/03/28 06:21:46;;;;;;;5.35;1.52;;;2.70;99.90;;;;;;4953101;28;20050;-86
2023/03/28 06:24:12;;;;;;;5.22;1.48;;;2.80;99.90;;;;;;4947333;28;20057;-86
2023/03/28 06:26:43;;;;;;;5.23;1.13;;;2.90;99.90;;;;;;4967375;28;20054;-83
2023/03/28 06:29:11;;;;;;;6.10;1.27;;;3.10;99.90;;;;;;4984637;28;20288;-86
2023/03/28 06:31:39;;;;;;;8.48;1.25;;;3.20;99.90;;;;;;4983679;28;20112;-86
2023/03/28 06:34:08;;;;;;;3.83;1.13;;;3.20;99.90;;;;;;4985073;28;20493;-86
2023/03/28 06:36:36;;;;;;;2.97;1.20;;;3.40;99.90;;;;;;4990200;28;20148;-86
2023/03/28 06:39:04;;;;;;;7.80;1.27;;;3.50;99.90;;;;;;4953425;28;20652;-85
2023/03/28 06:41:29;;;;;;;4.20;0.70;;;3.60;99.90;;;;;;4971430;28;20046;-86
2023/03/28 06:43:55;;;;;;;5.60;1.30;;;3.60;99.90;;;;;;4958432;28;20521;-86
2023/03/28 06:46:23;;;;;;;6.50;1.37;;;3.70;99.90;;;;;;4971660;28;20133;-86
2023/03/28 06:48:51;;;;;;;4.40;1.17;;;3.70;99.90;;;;;;4973330;28;20101;-83
2023/03/28 06:51:19;;;;;;;5.72;1.20;;;3.80;99.90;;;;;;4966815;28;20042;-86
2023/03/28 06:53:47;;;;;;;2.38;0.65;;;3.90;99.90;;;;;;4961444;28;20062;-85
2023/03/28 06:56:19;;;;;;;9.70;1.15;;;3.90;99.90;;;;;;4994124;28;20038;-86
2023/03/28 06:58:56;;;;;;;3.92;1.05;;;4.00;99.90;;;;;;4956719;28;20121;-86
2023/03/28 07:01:21;;;;;;;3.40;1.00;;;4.10;99.90;;;;;;4970973;28;20031;-87
2023/03/28 07:03:47;;;;;;;3.77;1.00;;;4.20;99.90;;;;;;4981793;28;20077;-83
2023/03/28 07:06:13;;;;;;;4.00;1.27;;;4.20;99.90;;;;;;4955725;28;20050;-85
2023/03/28 07:08:41;;;;;;;6.67;1.80;;;4.30;99.90;;;;;;4976959;28;20132;-87
2023/03/28 07:11:07;;;;;;;4.03;1.30;;;4.40;99.90;;;;;;4962771;28;20403;-86
2023/03/28 07:13:43;;;;;;;4.37;0.93;;;4.40;99.90;;;;;;4989065;28;20057;-86
2023/03/28 07:16:15;;;;;;;10.82;2.20;;;4.40;99.90;;;;;;4985903;28;20042;-86
2023/03/28 07:18:44;;;;;;;8.98;2.03;;;4.50;99.90;;;;;;4952097;28;20105;-86
2023/03/28 07:21:12;;;;;;;4.88;1.83;;;4.60;99.90;;;;;;4971052;28;20057;-84
2023/03/28 07:23:38;;;;;;;6.60;1.08;;;4.60;99.90;;;;;;4952794;28;20532;-86
2023/03/28 07:26:06;;;;;;;4.18;0.90;;;4.70;99.90;;;;;;4984493;28;20064;-86
2023/03/28 07:28:35;;;;;;;2.20;0.70;;;4.80;99.90;;;;;;4955022;28;20138;-86
2023/03/28 07:31:03;;;;;;;10.43;1.90;;;4.90;99.90;;;;;;4969190;28;20566;-86
2023/03/28 07:33:38;;;;;;;21.90;4.20;;;4.90;99.90;;;;;;4950866;28;20038;-86
2023/03/28 07:36:16;;;;;;;8.98;1.70;;;4.90;99.90;;;;;;4954340;28;20065;-85
2023/03/28 07:38:41;;;;;;;4.43;1.48;;;4.90;99.90;;;;;;4963534;28;20093;-85
2023/03/28 07:41:08;;;;;;;7.07;1.90;;;4.90;99.90;;;;;;4986374;28;20065;-86
2023/03/28 07:43:38;;;;;;;3.78;1.40;;;4.90;99.90;;;;;;4970929;28;20046;-86
2023/03/28 07:46:09;;;;;;;6.28;1.23;;;5.00;99.90;;;;;;4970416;28;20153;-86
2023/03/28 07:48:36;;;;;;;9.30;3.08;;;4.90;99.90;;;;;;4987978;28;20065;-85
2023/03/28 07:51:06;;;;;;;4.72;1.60;;;4.80;99.90;;;;;;4967620;28;20828;-86
2023/03/28 07:53:38;;;;;;;4.18;1.00;;;4.90;99.90;;;;;;4969551;28;20057;-85
2023/03/28 07:56:10;;;;;;;4.75;1.25;;;4.90;99.90;;;;;;4969805;28;20074;-85
2023/03/28 07:58:39;;;;;;;4.10;1.30;;;5.10;99.90;;;;;;4981548;28;20089;-86
2023/03/28 08:01:07;;;;;;;21.30;4.85;;;5.10;99.90;;;;;;4965998;28;20042;-86
2023/03/28 08:03:36;;;;;;;9.32;2.42;;;5.20;99.90;;;;;;4970304;28;20440;-86
2023/03/28 08:06:05;;;;;;;6.97;1.60;;;5.40;99.90;;;;;;4986855;28;20054;-86
2023/03/28 08:08:36;;;;;;;11.63;1.70;;;5.40;99.90;;;;;;4953580;28;20034;-85
2023/03/28 08:11:06;;;;;;;19.00;4.88;;;5.50;99.90;;;;;;4968827;28;20045;-86
2023/03/28 08:13:32;;;;;;;11.27;2.63;;;5.70;99.90;;;;;;4966009;28;20045;-86
2023/03/28 08:16:00;;;;;;;4.33;1.00;;;5.70;99.90;;;;;;4953513;28;20046;-87
2023/03/28 08:18:26;;;;;;;3.75;0.60;;;5.80;99.90;;;;;;4969006;28;20383;-86
2023/03/28 08:20:58;;;;;;;1.33;0.30;;;5.80;99.90;;;;;;4969999;28;20046;-86
2023/03/28 08:23:25;;;;;;;1.13;0.40;;;5.90;99.90;;;;;;4954035;28;20121;-86
2023/03/28 08:25:57;;;;;;;1.90;0.43;;;6.00;99.90;;;;;;4986529;28;20160;-85
2023/03/28 08:28:22;;;;;;;2.90;0.40;;;6.10;99.90;;;;;;4969670;28;20462;-86
2023/03/28 08:30:48;;;;;;;3.90;0.93;;;6.10;99.90;;;;;;4954054;28;20076;-85
2023/03/28 08:33:14;;;;;;;3.57;0.37;;;6.20;99.90;;;;;;4946196;28;20041;-86
2023/03/28 08:35:40;;;;;;;2.73;0.70;;;6.20;99.90;;;;;;4969282;28;20089;-85
2023/03/28 08:38:06;;;;;;;1.58;0.50;;;6.30;99.90;;;;;;4953332;28;20360;-86
2023/03/28 08:40:39;;;;;;;5.00;1.63;;;6.30;99.90;;;;;;4982860;28;20129;-84
2023/03/28 08:43:55;;;;;;;2.63;1.08;;;6.30;99.90;;;;;;4983197;28;20447;-85
2023/03/28 08:46:30;;;;;;;6.50;1.92;;;6.30;99.90;;;;;;4920166;28;20054;-86
2023/03/28 08:49:02;;;;;;;3.45;0.82;;;6.30;99.90;;;;;;4960371;28;20502;-82
2023/03/28 08:51:45;;;;;;;6.22;2.20;;;6.30;99.90;;;;;;4984425;28;20035;-85
2023/03/28 08:54:35;;;;;;;3.50;1.00;;;6.30;99.90;;;;;;4967920;28;20050;-86
2023/03/28 08:57:04;;;;;;;1.52;0.40;;;6.50;99.90;;;;;;4956598;28;20039;-86
2023/03/28 09:00:00;;;;;;;2.60;0.35;;;6.50;99.90;;;;;;4957287;28;20117;-86
2023/03/28 09:02:27;;;;;;;1.52;0.60;;;6.60;99.90;;;;;;4951186;28;20138;-86
2023/03/28 09:04:54;;;;;;;0.68;0.35;;;6.70;99.90;;;;;;4990454;28;20497;-86
2023/03/28 09:07:58;;;;;;;1.55;0.38;;;6.70;99.90;;;;;;4956278;28;20095;-86
2023/03/28 09:10:39;;;;;;;3.67;0.68;;;6.80;99.90;;;;;;4972056;28;20394;-85
2023/03/28 09:13:11;;;;;;;1.55;0.38;;;6.80;99.90;;;;;;4960611;28;20048;-86
2023/03/28 09:15:53;;;;;;;6.47;0.52;;;6.90;99.90;;;;;;4962075;28;20680;-86
2023/03/28 09:18:21;;;;;;;2.80;0.50;;;7.00;99.90;;;;;;4990135;28;20049;-86
2023/03/28 09:21:08;;;;;;;0.98;0.40;;;7.20;99.90;;;;;;4988739;28;20084;-85
2023/03/28 09:23:49;;;;;;;1.98;0.60;;;7.20;99.90;;;;;;4953908;28;20189;-86
2023/03/28 09:26:19;;;;;;;13.35;1.55;;;7.20;99.90;;;;;;4974177;28;20536;-85
2023/03/28 09:28:46;;;;;;;2.53;0.65;;;7.30;99.90;;;;;;4990285;28;20104;-86
2023/03/28 09:31:17;;;;;;;3.05;0.55;;;7.40;99.90;;;;;;4982389;28;20081;-86
2023/03/28 09:33:47;;;;;;;2.80;0.60;;;7.40;99.90;;;;;;4960034;28;20046;-85
2023/03/28 09:36:19;;;;;;;6.78;1.05;;;7.50;99.90;;;;;;4974218;28;20050;-87
2023/03/28 09:38:54;;;;;;;4.97;1.45;;;7.50;99.90;;;;;;4962682;28;20034;-86
2023/03/28 09:41:45;;;;;;;9.13;1.55;;;7.50;99.90;;;;;;4974366;28;20116;-86
2023/03/28 09:44:15;;;;;;;3.47;0.77;;;7.60;99.90;;;;;;4981649;28;20042;-86
2023/03/28 09:46:43;;;;;;;2.05;0.70;;;7.70;99.90;;;;;;4984468;28;20803;-87
2023/03/28 09:49:23;;;;;;;6.93;1.20;;;7.80;99.90;;;;;;4992934;28;20045;-86
2023/03/28 09:51:56;;;;;;;2.10;0.85;;;7.90;99.90;;;;;;4967208;28;20074;-85
2023/03/28 09:54:36;;;;;;;4.00;1.02;;;8.00;99.70;;;;;;4992490;28;20945;-86
2023/03/28 09:57:06;;;;;;;2.72;0.85;;;8.00;98.90;;;;;;4975043;28;20290;-85
2023/03/28 09:59:38;;;;;;;4.03;0.93;;;8.10;99.50;;;;;;4953429;28;20100;-86
2023/03/28 10:02:24;;;;;;;2.92;1.05;;;8.10;99.60;;;;;;4986589;28;20611;-85
2023/03/28 10:04:51;;;;;;;3.30;1.20;;;8.10;99.30;;;;;;4971311;28;20057;-84
2023/03/28 10:07:38;;;;;;;4.97;1.08;;;8.20;99.70;;;;;;4988219;28;20047;-86
2023/03/28 10:10:18;;;;;;;2.17;1.00;;;8.20;99.40;;;;;;4985013;28;20097;-86
2023/03/28 10:12:46;;;;;;;5.43;1.00;;;8.40;97.70;;;;;;4989719;28;20519;-87
2023/03/28 10:15:31;;;;;;;4.88;1.00;;;8.50;99.40;;;;;;4975724;28;20127;-85
2023/03/28 10:17:59;;;;;;;3.55;1.30;;;8.50;96.60;;;;;;4969956;28;20100;-85
2023/03/28 10:20:26;;;;;;;6.18;2.10;;;8.50;98.70;;;;;;4961362;28;20042;-86
2023/03/28 10:22:54;;;;;;;5.57;1.30;;;8.50;98.30;;;;;;4960606;28;20038;-86
2023/03/28 10:25:43;;;;;;;5.53;1.63;;;8.50;98.40;;;;;;4963248;28;20089;-86
2023/03/28 10:28:16;;;;;;;6.53;1.50;;;8.60;99.00;;;;;;4955364;28;20104;-86
2023/03/28 10:30:42;;;;;;;8.70;1.30;;;8.70;98.70;;;;;;4957854;28;20054;-86
2023/03/28 10:33:29;;;;;;;6.03;1.92;;;8.60;98.90;;;;;;4971576;28;20124;-86
2023/03/28 10:36:00;;;;;;;6.15;1.52;;;8.60;98.60;;;;;;4965949;28;20125;-84
2023/03/28 10:38:55;;;;;;;3.67;1.13;;;8.60;98.40;;;;;;4965699;28;20113;-86
2023/03/28 10:41:30;;;;;;;5.18;1.05;;;8.60;98.70;;;;;;4990156;28;20076;-87
2023/03/28 10:43:56;;;;;;;7.43;1.42;;;8.50;98.50;;;;;;4988891;28;20038;-86
2023/03/28 10:46:36;;;;;;;7.72;2.08;;;8.50;98.60;;;;;;4987008;28;20034;-86
2023/03/28 10:49:14;;;;;;;7.13;1.35;;;8.50;99.00;;;;;;4971187;28;20061;-85
2023/03/28 10:51:41;;;;;;;5.93;1.05;;;8.60;98.80;;;;;;4984282;28;20046;-86
2023/03/28 10:54:10;;;;;;;2.92;1.35;;;8.70;98.60;;;;;;4983938;28;20116;-85
2023/03/28 10:56:51;;;;;;;5.00;1.30;;;8.90;98.90;;;;;;4958703;28;20122;-85
2023/03/28 10:59:49;;;;;;;2.58;1.20;;;9.00;98.70;;;;;;4977025;28;20038;-86
2023/03/28 11:02:21;;;;;;;3.88;1.30;;;9.00;97.70;;;;;;4971702;28;20520;-86
2023/03/28 11:04:56;;;;;;;1.73;0.73;;;9.00;97.80;;;;;;4973151;28;20108;-85
2023/03/28 11:07:47;;;;;;;4.07;1.23;;;9.00;96.90;;;;;;4957203;28;20421;-86
2023/03/28 11:10:22;;;;;;;4.20;1.10;;;8.80;94.90;;;;;;4985489;28;20046;-85
2023/03/28 11:13:00;;;;;;;4.07;2.00;;;8.80;96.60;;;;;;4986454;28;20034;-86
2023/03/28 11:15:28;;;;;;;;;;;8.80;95.60;;;;;;4960771;28;20050;-87
2023/03/28 11:18:12;;;;;;;5.35;1.50;;;8.80;94.80;;;;;;4974945;28;19929;-86
2023/03/28 11:20:41;;;;;;;4.53;1.30;;;8.80;96.40;;;;;;4957301;28;20050;-87
2023/03/28 11:23:28;;;;;;;3.40;1.27;;;8.80;95.50;;;;;;4986407;28;20081;-85
2023/03/28 11:26:11;;;;;;;7.93;1.87;;;8.80;95.80;;;;;;4960512;28;20065;-85
2023/03/28 11:28:46;;;;;;;5.72;1.55;;;8.80;95.70;;;;;;4994401;28;20047;-86
2023/03/28 11:31:17;;;;;;;5.22;1.83;;;8.90;95.90;;;;;;4970432;28;20117;-86
2023/03/28 11:34:24;;;;;;;3.60;1.73;;;9.00;96.20;;;;;;4954297;28;20407;-86
2023/03/28 11:36:57;;;;;;;6.95;1.67;;;9.20;96.30;;;;;;4948896;28;20096;-87
2023/03/28 11:39:41;;;;;;;9.00;1.60;;;9.30;95.40;;;;;;4987161;28;20046;-86
2023/03/28 11:42:41;;;;;;;5.65;1.70;;;9.40;95.80;;;;;;4983713;28;20149;-86
2023/03/28 11:45:10;;;;;;;3.72;1.42;;;9.30;94.50;;;;;;4918061;28;20073;-86
2023/03/28 11:47:43;;;;;;;8.50;2.35;;;9.40;95.60;;;;;;4987539;28;20043;-86
2023/03/28 11:50:21;;;;;;;6.70;2.20;;;9.40;95.90;;;;;;4969660;28;20401;-85
2023/03/28 11:52:53;;;;;;;9.65;2.03;;;9.50;94.80;;;;;;4975923;28;20038;-86
2023/03/28 11:55:30;;;;;;;6.35;2.25;;;9.80;95.20;;;;;;4955236;28;20051;-86
2023/03/28 11:58:00;;;;;;;;;;;9.90;94.80;;;;;;4965953;28;20049;-86
2023/03/28 12:00:47;;;;;;;3.42;1.75;;;10.00;92.30;;;;;;4975644;28;19969;-86
2023/03/28 12:03:22;;;;;;;4.53;1.73;;;10.20;93.00;;;;;;4950767;28;20097;-83
2023/03/28 12:05:56;;;;;;;8.38;1.60;;;10.40;92.90;;;;;;4988972;28;20120;-86
2023/03/28 12:08:37;;;;;;;4.03;1.60;;;10.60;92.20;;;;;;4961752;28;20047;-86
2023/03/28 12:11:22;;;;;;;5.60;1.58;;;10.70;92.70;;;;;;4974502;28;20112;-85
2023/03/28 12:14:07;;;;;;;4.82;1.88;;;10.60;90.80;;;;;;4952796;28;20423;-84
2023/03/28 12:16:38;;;;;;;7.20;1.95;;;10.70;90.70;;;;;;4985989;28;20042;-86
2023/03/28 12:19:09;;;;;;;5.25;2.22;;;10.50;90.20;;;;;;4986735;28;20104;-86
2023/03/28 12:21:48;;;;;;;4.60;2.05;;;10.40;90.00;;;;;;4986820;28;20971;-86
2023/03/28 12:24:34;;;;;;;5.38;2.08;;;10.40;88.50;;;;;;4949537;28;20125;-85
2023/03/28 12:27:36;;;;;;;8.63;2.22;;;10.40;87.50;;;;;;4953593;28;20675;-87
2023/03/28 12:30:15;;;;;;;4.45;1.90;;;10.40;87.50;;;;;;4938935;28;20046;-86
2023/03/28 12:33:07;;;;;;;4.32;2.00;;;10.50;86.50;;;;;;4971317;28;20457;-85
2023/03/28 12:35:56;;;;;;;3.22;1.85;;;10.50;87.90;;;;;;4944509;28;20060;-86
2023/03/28 12:38:28;;;;;;;7.32;1.90;;;10.50;83.00;;;;;;4984841;28;20125;-84
2023/03/28 12:41:23;;;;;;;5.97;1.88;;;10.50;83.20;;;;;;4969551;28;20337;-87
2023/03/28 12:44:07;;;;;;;11.85;3.38;;;10.30;78.90;;;;;;4980946;28;20378;-84
2023/03/28 12:47:07;;;;;;;7.57;2.42;;;10.30;79.30;;;;;;4972722;28;20051;-86
2023/03/28 12:49:37;;;;;;;6.88;2.00;;;10.20;80.20;;;;;;4951058;28;20034;-86
2023/03/28 12:52:14;;;;;;;7.32;1.98;;;10.30;82.40;;;;;;4952324;28;20121;-86
2023/03/28 12:55:17;;;;;;;5.57;1.98;;;10.20;81.30;;;;;;4970611;28;20051;-86
2023/03/28 12:57:45;;;;;;;4.70;1.63;;;10.00;81.30;;;;;;4984669;28;20425;-85
2023/03/28 13:00:23;;;;;;;6.30;1.95;;;10.00;83.30;;;;;;4998806;28;20026;-86
2023/03/28 13:03:07;;;;;;;4.07;1.63;;;10.00;83.60;;;;;;4971755;28;20416;-86
2023/03/28 13:05:56;;;;;;;5.05;1.80;;;10.00;82.00;;;;;;4985713;28;20042;-87
2023/03/28 13:08:42;;;;;;;6.32;2.20;;;10.00;83.10;;;;;;4937553;28;20162;-84
2023/03/28 13:11:27;;;;;;;4.80;1.90;;;10.00;82.30;;;;;;4985521;28;20278;-87
2023/03/28 13:14:36;;;;;;;5.63;2.20;;;10.10;83.90;;;;;;4964854;28;20050;-87
2023/03/28 13:17:28;;;;;;;6.78;2.70;;;10.20;81.80;;;;;;4952116;28;20901;-86
2023/03/28 13:20:06;;;;;;;5.82;2.20;;;10.20;81.70;;;;;;4969501;28;20034;-86
2023/03/28 13:23:00;;;;;;;6.10;1.88;;;10.20;81.90;;;;;;4969412;28;20047;-86
2023/03/28 13:25:26;;;;;;;6.03;2.13;;;10.10;78.60;;;;;;4970568;28;20125;-86
2023/03/28 13:28:22;;;;;;;6.13;1.85;;;10.10;82.50;;;;;;4986917;28;20057;-86
2023/03/28 13:31:17;;;;;;;5.63;1.80;;;10.10;81.80;;;;;;4955150;28;20054;-86
2023/03/28 13:34:02;;;;;;;8.05;2.20;;;10.10;83.30;;;;;;4965503;28;20049;-87
2023/03/28 13:36:31;;;;;;;5.55;2.00;;;10.20;82.60;;;;;;4984045;28;20075;-86
2023/03/28 13:39:20;;;;;;;5.28;2.10;;;10.10;81.40;;;;;;4994704;23;20507;-69
2023/03/28 13:41:46;;;;;;;2.75;1.20;;;10.10;79.90;;;;;;4972929;28;20054;-69
2023/03/28 13:44:32;;;;;;;3.27;1.70;;;10.00;81.90;;;;;;4959956;28;20042;-69